Time;durP1;ratioP1;P1;durP2;ratioP2;P2;SDS_P1;SDS_P2;PMS_P1;PMS_P2;Temp;Humidity;BMP_temperature;BMP_pressure;BME280_temperature;BME280_humidity;BME280_pressure;Samples;Min_cycle;Max_cycle;Signal;HPM_P1;HPM_P2
2021/12/06 00:00:51;;;;;;;26.10;18.47;;;;;;;1.93;93.59;101091.88;5028759;28;20045;-58
2021/12/06 00:03:25;;;;;;;26.43;19.47;;;;;;;1.92;93.67;101092.84;5025671;28;20036;-58
2021/12/06 00:05:51;;;;;;;27.57;19.90;;;;;;;1.99;93.59;101102.00;5030012;28;20025;-59
2021/12/06 00:08:16;;;;;;;31.73;20.53;;;;;;;2.01;93.87;101100.09;5030998;28;20136;-58
2021/12/06 00:10:42;;;;;;;25.23;18.70;;;;;;;2.05;93.63;101102.50;5029858;28;20043;-58
2021/12/06 00:13:08;;;;;;;28.13;19.23;;;;;;;2.02;93.41;101103.53;5031635;28;20025;-58
2021/12/06 00:15:33;;;;;;;25.40;18.07;;;;;;;2.03;93.69;101107.00;5031977;28;20482;-59
2021/12/06 00:18:00;;;;;;;26.50;18.83;;;;;;;2.06;93.51;101109.44;5030534;28;20083;-59
2021/12/06 00:20:25;;;;;;;25.90;18.80;;;;;;;2.06;93.52;101110.25;5033651;28;20034;-59
2021/12/06 00:22:51;;;;;;;27.63;18.80;;;;;;;2.07;93.49;101111.94;5032501;28;20075;-59
2021/12/06 00:25:17;;;;;;;27.83;18.87;;;;;;;2.06;93.59;101114.69;5033258;28;20021;-59
2021/12/06 00:27:43;;;;;;;27.70;20.17;;;;;;;2.07;93.82;101129.44;5032915;28;20417;-57
2021/12/06 00:30:14;;;;;;;29.33;21.00;;;;;;;2.07;94.07;101117.16;5033952;28;20035;-58
2021/12/06 00:32:41;;;;;;;31.13;20.80;;;;;;;2.13;94.23;101121.19;5031859;28;20031;-58
2021/12/06 00:35:07;;;;;;;27.60;19.77;;;;;;;2.11;93.96;101128.28;5032842;28;20072;-59
2021/12/06 00:37:41;;;;;;;28.03;19.13;;;;;;;2.11;93.76;101128.28;5032260;28;20485;-59
2021/12/06 00:40:08;;;;;;;27.80;19.10;;;;;;;2.09;94.02;101135.38;5033722;28;20544;-58
2021/12/06 00:42:34;;;;;;;30.53;20.77;;;;;;;2.11;94.14;101138.72;5033875;28;20439;-58
2021/12/06 00:45:03;;;;;;;29.57;20.17;;;;;;;2.10;94.20;101137.06;5032737;28;20039;-58
2021/12/06 00:47:28;;;;;;;27.80;20.10;;;;;;;2.18;94.88;101145.28;5032938;28;20037;-58
2021/12/06 00:49:54;;;;;;;27.63;19.37;;;;;;;2.21;94.37;101149.47;5033636;28;20083;-58
2021/12/06 00:52:20;;;;;;;29.37;19.67;;;;;;;2.24;94.43;101159.72;5034049;28;20092;-58
2021/12/06 00:54:46;;;;;;;27.43;19.27;;;;;;;2.23;94.55;101158.88;5032483;28;20033;-58
2021/12/06 00:57:14;;;;;;;28.93;19.87;;;;;;;2.15;94.29;101163.78;5030910;28;20060;-57
2021/12/06 00:59:40;;;;;;;30.50;20.50;;;;;;;2.18;94.35;101168.81;5032465;28;20037;-58
2021/12/06 01:02:07;;;;;;;31.27;21.83;;;;;;;2.19;94.53;101173.13;5031913;28;20151;-58
2021/12/06 01:04:35;;;;;;;30.27;21.80;;;;;;;2.12;94.39;101175.28;5033118;28;20398;-57
2021/12/06 01:07:01;;;;;;;29.77;20.87;;;;;;;2.13;94.37;101189.22;5032202;28;20029;-58
2021/12/06 01:09:26;;;;;;;34.20;21.20;;;;;;;2.11;94.65;101185.84;5033460;28;20372;-57
2021/12/06 01:11:52;;;;;;;30.27;21.30;;;;;;;2.04;94.52;101184.53;5033282;28;20033;-57
2021/12/06 01:14:19;;;;;;;32.67;22.40;;;;;;;2.00;94.63;101184.75;5032254;28;20059;-58
2021/12/06 01:16:44;;;;;;;31.07;21.67;;;;;;;2.05;94.59;101181.00;5031713;28;20037;-57
2021/12/06 01:19:09;;;;;;;30.27;21.67;;;;;;;2.12;95.47;101177.06;5032080;28;20094;-58
2021/12/06 01:21:47;;;;;;;33.93;23.07;;;;;;;2.11;95.17;101185.84;5033071;28;20114;-58
2021/12/06 01:24:13;;;;;;;33.40;23.07;;;;;;;2.18;95.49;101189.75;5030203;28;20029;-59
2021/12/06 01:29:43;;;;;;;32.93;23.70;;;;;;;2.20;95.36;101195.72;5031984;28;20045;-58
2021/12/06 01:39:56;;;;;;;38.27;23.60;;;;;;;2.37;95.61;101196.44;5023064;28;20049;-58
2021/12/06 01:42:22;;;;;;;33.33;23.40;;;;;;;2.40;95.71;101201.44;5032356;28;20030;-58
2021/12/06 01:44:54;;;;;;;35.13;23.63;;;;;;;2.41;95.79;101208.34;5032121;28;20053;-58
2021/12/06 01:47:23;;;;;;;35.83;25.40;;;;;;;2.39;95.74;101215.47;5031232;28;20049;-58
2021/12/06 01:49:52;;;;;;;32.20;22.73;;;;;;;2.39;96.03;101216.34;5027906;28;20042;-58
2021/12/06 01:52:24;;;;;;;32.17;23.73;;;;;;;2.36;95.93;101216.50;5032473;28;20033;-58
2021/12/06 01:54:50;;;;;;;36.60;23.30;;;;;;;2.37;96.01;101214.75;5031395;28;20065;-57
2021/12/06 01:57:16;;;;;;;31.83;23.03;;;;;;;2.41;95.99;101222.31;5031278;28;20106;-58
2021/12/06 01:59:41;;;;;;;35.40;22.47;;;;;;;2.39;96.00;101225.94;5032254;28;20122;-57
2021/12/06 02:02:09;;;;;;;31.67;23.03;;;;;;;2.41;95.88;101224.06;5030570;28;20510;-58
2021/12/06 02:04:37;;;;;;;30.85;22.60;;;;;;;2.36;96.10;101215.69;5030453;28;20375;-59
2021/12/06 02:07:06;;;;;;;31.43;22.00;;;;;;;2.45;96.37;101222.94;5029527;28;20098;-58
2021/12/06 02:09:31;;;;;;;31.53;22.77;;;;;;;2.45;96.32;101220.31;5032750;28;20029;-57
2021/12/06 02:12:01;;;;;;;30.90;21.70;;;;;;;2.45;96.04;101225.56;5031292;28;20083;-58
2021/12/06 02:17:12;;;;;;;36.60;25.53;;;;;;;2.39;96.21;101215.47;5031868;28;20041;-57
2021/12/06 02:19:44;;;;;;;34.67;25.23;;;;;;;2.37;96.05;101220.81;5031363;28;20474;-58
2021/12/06 02:22:13;;;;;;;34.73;24.43;;;;;;;2.32;96.07;101219.44;5031662;28;20029;-58
2021/12/06 02:24:38;;;;;;;37.33;24.20;;;;;;;2.35;96.25;101232.31;5030518;28;20033;-57
2021/12/06 02:27:07;;;;;;;34.70;23.60;;;;;;;2.38;96.61;101234.75;5029964;28;20025;-57
2021/12/06 02:29:33;;;;;;;31.93;22.77;;;;;;;2.43;96.72;101240.53;5031973;28;20021;-57
2021/12/06 02:31:59;;;;;;;36.53;25.30;;;;;;;2.42;96.44;101246.72;5030983;28;20378;-57
2021/12/06 02:34:25;;;;;;;33.60;23.50;;;;;;;2.40;96.56;101244.19;5028888;28;20076;-58
2021/12/06 02:36:50;;;;;;;37.57;23.50;;;;;;;2.37;96.42;101240.94;5031112;28;20018;-58
2021/12/06 02:39:24;;;;;;;35.67;24.65;;;;;;;2.34;96.31;101248.97;5031373;28;20029;-58
2021/12/06 02:41:51;;;;;;;34.83;23.27;;;;;;;2.27;96.19;101254.59;5032261;28;20029;-57
2021/12/06 02:44:18;;;;;;;31.80;22.87;;;;;;;2.25;96.33;101256.47;5030958;28;20025;-58
2021/12/06 02:46:44;;;;;;;36.13;24.73;;;;;;;2.23;96.61;101263.56;5031710;28;20057;-58
2021/12/06 02:49:09;;;;;;;36.73;25.03;;;;;;;2.25;96.51;101266.94;5030258;28;20084;-58
2021/12/06 02:51:35;;;;;;;35.97;24.80;;;;;;;2.25;96.92;101271.31;5031907;28;20036;-57
2021/12/06 02:54:00;;;;;;;34.33;24.77;;;;;;;2.24;96.85;101267.03;5029810;28;20030;-57
2021/12/06 02:56:31;;;;;;;34.73;24.40;;;;;;;2.29;96.76;101263.16;5031291;28;20098;-58
2021/12/06 02:59:00;;;;;;;36.43;25.23;;;;;;;2.30;96.95;101258.78;5031727;28;20037;-57
2021/12/06 03:01:27;;;;;;;39.83;25.10;;;;;;;2.33;96.95;101274.31;5029593;28;20057;-58
2021/12/06 03:03:53;;;;;;;37.97;24.43;;;;;;;2.32;96.76;101277.84;5023024;28;20048;-57
2021/12/06 03:06:18;;;;;;;37.70;25.07;;;;;;;2.28;96.93;101271.97;5029940;28;20037;-58
2021/12/06 03:09:06;;;;;;;36.97;25.57;;;;;;;2.28;96.93;101277.19;5031021;28;20053;-58
2021/12/06 03:11:38;;;;;;;36.73;24.37;;;;;;;2.23;97.08;101268.78;5032009;28;20030;-58
2021/12/06 03:14:07;;;;;;;35.22;23.70;;;;;;;2.21;96.80;101270.66;5030660;28;20109;-58
2021/12/06 03:16:32;;;;;;;34.40;24.33;;;;;;;2.23;97.01;101273.19;5030172;28;20064;-58
2021/12/06 03:18:58;;;;;;;37.77;25.60;;;;;;;2.19;96.88;101272.56;5030044;28;20057;-58
2021/12/06 03:21:25;;;;;;;37.83;24.90;;;;;;;2.18;96.70;101276.09;5029593;28;20394;-59
2021/12/06 03:23:52;;;;;;;39.83;25.63;;;;;;;2.22;97.12;101274.97;5027551;28;20452;-58
2021/12/06 03:26:17;;;;;;;40.20;25.80;;;;;;;2.27;97.32;101274.69;5030592;28;20030;-58
2021/12/06 03:28:44;;;;;;;42.00;28.20;;;;;;;2.27;97.16;101275.50;5030126;28;20500;-58
2021/12/06 03:31:11;;;;;;;41.37;28.20;;;;;;;2.29;96.89;101272.81;5029508;28;20028;-58
2021/12/06 03:33:40;;;;;;;41.63;26.70;;;;;;;2.26;97.31;101275.59;5029794;28;20033;-58
2021/12/06 03:36:08;;;;;;;39.23;26.27;;;;;;;2.25;97.13;101269.56;5030597;28;20026;-57
2021/12/06 03:38:34;;;;;;;41.43;27.70;;;;;;;2.29;97.04;101283.28;5030185;28;20562;-58
2021/12/06 03:41:00;;;;;;;41.70;26.83;;;;;;;2.29;96.92;101278.88;5031625;28;20535;-58
2021/12/06 03:43:25;;;;;;;37.73;26.77;;;;;;;2.33;97.01;101283.94;5029504;28;20037;-58
2021/12/06 03:45:52;;;;;;;39.80;27.57;;;;;;;2.36;97.11;101284.56;5030280;28;20112;-58
2021/12/06 03:48:17;;;;;;;40.38;26.98;;;;;;;2.39;97.19;101278.31;5032487;28;20049;-58
2021/12/06 03:50:43;;;;;;;40.95;27.92;;;;;;;2.42;97.70;101283.34;5034879;28;20033;-59
2021/12/06 03:53:08;;;;;;;42.50;28.35;;;;;;;2.43;97.18;101279.78;5033883;28;20087;-58
2021/12/06 03:55:33;;;;;;;42.63;28.40;;;;;;;2.44;97.34;101284.09;5034210;28;20041;-58
2021/12/06 03:57:59;;;;;;;39.10;26.17;;;;;;;2.44;96.96;101284.09;5034748;28;20075;-58
2021/12/06 04:00:24;;;;;;;38.33;26.35;;;;;;;2.42;96.83;101278.13;5033637;28;20539;-57
2021/12/06 04:02:51;;;;;;;37.40;26.25;;;;;;;2.45;96.95;101288.38;5034490;28;20029;-58
2021/12/06 04:05:16;;;;;;;40.53;27.50;;;;;;;2.45;97.75;101287.53;5032906;28;20560;-58
2021/12/06 04:07:42;;;;;;;42.83;27.90;;;;;;;2.42;97.17;101293.81;5034477;28;20041;-58
2021/12/06 04:10:09;;;;;;;42.58;28.05;;;;;;;2.37;97.14;101295.88;5033937;28;20026;-58
2021/12/06 04:12:36;;;;;;;38.72;27.33;;;;;;;2.35;97.30;101293.38;5033219;28;20472;-57
2021/12/06 04:15:04;;;;;;;38.95;26.73;;;;;;;2.35;97.43;101284.66;5033021;28;20018;-58
2021/12/06 04:17:30;;;;;;;41.42;26.30;;;;;;;2.40;97.38;101295.69;5033936;28;20048;-58
2021/12/06 04:19:55;;;;;;;39.60;26.70;;;;;;;2.39;97.15;101294.84;5034309;28;20029;-58
2021/12/06 04:22:21;;;;;;;40.80;27.23;;;;;;;2.38;97.34;101290.53;5033761;28;20343;-57
2021/12/06 04:24:46;;;;;;;42.58;27.02;;;;;;;2.37;97.21;101285.41;5032525;28;20517;-57
2021/12/06 04:27:14;;;;;;;40.80;26.92;;;;;;;2.38;97.42;101287.09;5033550;28;20035;-58
2021/12/06 04:29:45;;;;;;;38.17;26.50;;;;;;;2.33;97.10;101286.53;5032498;28;20033;-58
2021/12/06 04:32:11;;;;;;;41.58;28.40;;;;;;;2.37;97.34;101288.03;5034408;28;20036;-58
2021/12/06 04:34:36;;;;;;;41.83;28.40;;;;;;;2.34;97.15;101296.91;5031282;28;20456;-58
2021/12/06 04:37:02;;;;;;;41.03;26.63;;;;;;;2.30;96.35;101298.03;5032548;28;20429;-58
2021/12/06 04:39:28;;;;;;;35.92;25.52;;;;;;;2.28;96.79;101303.38;5032248;28;20033;-59
2021/12/06 04:41:53;;;;;;;39.40;26.55;;;;;;;2.29;96.96;101305.03;5032469;28;20484;-58
2021/12/06 04:44:19;;;;;;;36.88;24.77;;;;;;;2.25;96.34;101303.56;5032360;28;20025;-59
2021/12/06 04:46:45;;;;;;;37.72;24.30;;;;;;;2.21;96.10;101307.31;5032518;28;20037;-59
2021/12/06 04:49:10;;;;;;;39.70;26.73;;;;;;;2.21;96.38;101304.69;5032785;28;20029;-58
2021/12/06 04:51:39;;;;;;;37.45;25.00;;;;;;;2.20;96.29;101310.88;5033696;28;20029;-58
2021/12/06 04:54:05;;;;;;;36.53;23.87;;;;;;;2.14;95.95;101311.25;5031807;28;20096;-59
2021/12/06 04:56:40;;;;;;;36.78;24.98;;;;;;;2.09;95.80;101321.16;5032662;28;20109;-59
2021/12/06 04:59:30;;;;;;;38.57;25.70;;;;;;;2.05;96.22;101315.25;5027996;28;20063;-58
2021/12/06 05:01:58;;;;;;;39.03;25.77;;;;;;;1.97;96.09;101318.34;5028355;28;20693;-58
2021/12/06 05:04:28;;;;;;;38.47;25.77;;;;;;;1.93;95.80;101319.44;5026480;28;20056;-59
2021/12/06 05:07:00;;;;;;;35.93;25.07;;;;;;;1.85;95.71;101321.69;5029600;28;20036;-57
2021/12/06 05:09:30;;;;;;;36.17;24.20;;;;;;;1.82;95.14;101322.72;5031070;28;20037;-58
2021/12/06 05:11:57;;;;;;;37.50;24.73;;;;;;;1.77;95.14;101322.16;5030779;28;20477;-58
2021/12/06 05:14:24;;;;;;;37.67;25.50;;;;;;;1.81;95.34;101320.19;5031813;28;20087;-59
2021/12/06 05:16:50;;;;;;;35.67;22.87;;;;;;;1.77;94.56;101329.19;5032091;28;20040;-58
2021/12/06 05:19:16;;;;;;;32.63;22.63;;;;;;;1.71;94.13;101330.38;5032338;28;20029;-58
2021/12/06 05:21:41;;;;;;;33.43;23.13;;;;;;;1.68;94.41;101335.78;5032181;28;20482;-59
2021/12/06 05:24:07;;;;;;;33.30;23.00;;;;;;;1.63;94.06;101338.66;5032284;28;20029;-58
2021/12/06 05:26:33;;;;;;;34.67;22.40;;;;;;;1.53;94.19;101337.53;5032207;28;20026;-59
2021/12/06 05:29:01;;;;;;;32.63;22.03;;;;;;;1.46;94.86;101337.03;5030437;28;20040;-58
2021/12/06 05:31:28;;;;;;;34.90;23.83;;;;;;;1.43;94.80;101343.28;5030942;28;20032;-58
2021/12/06 05:33:59;;;;;;;32.43;22.70;;;;;;;1.44;94.40;101344.16;5032186;28;20029;-59
2021/12/06 05:36:25;;;;;;;33.70;22.70;;;;;;;1.37;94.14;101338.41;5028521;28;20035;-59
2021/12/06 05:38:51;;;;;;;34.20;22.60;;;;;;;1.28;94.06;101333.75;5030329;28;20083;-59
2021/12/06 05:41:17;;;;;;;34.30;22.60;;;;;;;1.32;94.21;101340.47;5031335;28;21477;-59
2021/12/06 05:43:42;;;;;;;35.50;24.47;;;;;;;1.28;94.52;101334.56;5032429;28;20033;-59
2021/12/06 05:46:08;;;;;;;35.30;22.60;;;;;;;1.27;94.46;101337.25;5033013;28;20029;-59
2021/12/06 05:48:33;;;;;;;123.80;27.07;;;;;;;1.27;94.83;101334.66;5029719;28;20394;-58
2021/12/06 05:50:58;;;;;;;70.67;27.60;;;;;;;1.32;96.11;101337.84;5030519;28;20053;-58
2021/12/06 05:53:24;;;;;;;109.07;29.03;;;;;;;1.35;96.29;101335.06;5031255;28;20111;-57
2021/12/06 05:55:50;;;;;;;107.20;28.47;;;;;;;1.38;96.47;101345.31;5045151;28;20057;-57
2021/12/06 05:58:18;;;;;;;144.93;27.00;;;;;;;1.40;96.60;101343.50;5029056;28;20037;-57
2021/12/06 06:00:45;;;;;;;222.57;28.30;;;;;;;1.39;96.45;101340.94;5028905;28;20046;-58
2021/12/06 06:03:11;;;;;;;216.50;29.03;;;;;;;1.39;96.46;101347.03;5032342;28;20037;-57
2021/12/06 06:05:37;;;;;;;75.03;27.77;;;;;;;1.45;97.08;101345.81;5031918;28;20034;-58
2021/12/06 06:08:03;;;;;;;99.50;27.73;;;;;;;1.45;97.23;101351.06;5030019;28;20095;-57
2021/12/06 06:10:32;;;;;;;120.17;27.53;;;;;;;1.46;97.17;101363.19;5029825;28;20029;-57
2021/12/06 06:12:59;;;;;;;147.87;27.30;;;;;;;1.45;97.19;101372.81;5030503;28;20087;-59
2021/12/06 06:15:24;;;;;;;127.27;26.57;;;;;;;1.45;97.34;101374.56;5029856;28;20119;-58
2021/12/06 06:17:50;;;;;;;120.10;27.03;;;;;;;1.45;97.58;101367.59;5027803;28;20493;-57
2021/12/06 06:20:29;;;;;;;149.07;26.80;;;;;;;1.46;97.53;101377.09;5021338;28;20522;-58
2021/12/06 06:22:54;;;;;;;150.60;26.77;;;;;;;1.46;97.49;101377.09;5020063;28;20038;-58
2021/12/06 06:25:20;;;;;;;146.67;27.67;;;;;;;1.44;97.77;101386.78;5023789;28;20044;-58
2021/12/06 06:27:46;;;;;;;149.07;27.87;;;;;;;1.46;97.88;101384.09;5024871;28;20076;-57
2021/12/06 06:30:12;;;;;;;113.73;27.37;;;;;;;1.46;97.76;101382.34;5025086;28;20026;-59
2021/12/06 06:32:38;;;;;;;120.20;28.00;;;;;;;1.47;98.23;101380.53;5018778;28;20037;-57
2021/12/06 06:35:04;;;;;;;129.80;30.17;;;;;;;1.45;98.37;101383.28;5023082;28;20030;-58
2021/12/06 06:37:30;;;;;;;87.23;28.73;;;;;;;1.47;98.19;101376.16;5026331;28;20033;-58
2021/12/06 06:39:55;;;;;;;101.10;28.57;;;;;;;1.51;98.38;101378.59;5024277;28;20041;-59
2021/12/06 06:42:24;;;;;;;125.10;31.23;;;;;;;1.51;98.40;101382.06;5019382;28;20037;-58
2021/12/06 06:44:51;;;;;;;128.57;29.20;;;;;;;1.48;98.72;101377.84;5023113;28;20033;-58
2021/12/06 06:47:17;;;;;;;149.63;29.40;;;;;;;1.49;98.88;101386.53;5018216;28;20410;-58
2021/12/06 06:49:43;;;;;;;155.30;29.20;;;;;;;1.48;98.68;101383.06;5021463;28;20124;-58
2021/12/06 06:52:08;;;;;;;116.97;29.33;;;;;;;1.52;98.78;101382.91;5024834;28;20121;-58
2021/12/06 06:54:34;;;;;;;143.90;32.07;;;;;;;1.54;98.95;101383.66;5022874;28;20036;-58
2021/12/06 06:56:59;;;;;;;157.57;30.47;;;;;;;1.54;98.95;101381.03;5020408;28;20474;-58
2021/12/06 06:59:24;;;;;;;134.13;29.50;;;;;;;1.53;98.67;101381.97;5020556;28;20048;-57
2021/12/06 07:01:50;;;;;;;133.10;30.23;;;;;;;1.55;99.40;101388.81;5022493;28;20103;-58
2021/12/06 07:04:15;;;;;;;102.97;29.70;;;;;;;1.55;99.01;101382.72;5022524;28;20482;-58
2021/12/06 07:06:41;;;;;;;127.73;32.20;;;;;;;1.57;99.01;101380.84;5023943;28;20474;-58
2021/12/06 07:09:06;;;;;;;145.07;30.30;;;;;;;1.56;99.21;101384.41;5020679;28;20041;-57
2021/12/06 07:11:32;;;;;;;112.53;29.97;;;;;;;1.55;99.23;101393.19;5026487;28;20402;-57
2021/12/06 07:13:57;;;;;;;92.93;30.67;;;;;;;1.56;99.16;101387.00;5025804;28;20502;-58
2021/12/06 07:16:24;;;;;;;138.80;30.87;;;;;;;1.56;99.46;101394.84;5024940;28;20483;-57
2021/12/06 07:18:49;;;;;;;131.03;31.10;;;;;;;1.58;99.35;101400.84;5022968;28;20033;-59
2021/12/06 07:21:15;;;;;;;75.50;30.97;;;;;;;1.59;99.72;101400.75;5025731;28;20076;-59
2021/12/06 07:23:42;;;;;;;172.17;33.70;;;;;;;1.51;99.22;101402.13;5022891;28;20034;-57
2021/12/06 07:26:09;;;;;;;133.00;32.10;;;;;;;1.56;99.43;101397.47;5029872;28;20032;-58
2021/12/06 07:28:35;;;;;;;71.67;31.97;;;;;;;1.63;99.73;101406.63;5029044;28;20100;-58
2021/12/06 07:31:02;;;;;;;93.53;32.63;;;;;;;1.68;99.72;101414.22;5025057;28;20113;-58
2021/12/06 07:33:28;;;;;;;89.53;31.47;;;;;;;1.69;99.80;101414.16;5029029;28;20034;-58
2021/12/06 07:35:53;;;;;;;79.47;31.67;;;;;;;1.69;100.00;101416.78;5031109;28;20045;-58
2021/12/06 07:38:19;;;;;;;79.37;31.07;;;;;;;1.69;99.85;101419.38;5033062;28;20030;-57
2021/12/06 07:40:44;;;;;;;64.53;31.17;;;;;;;1.69;99.78;101422.00;5032523;28;20549;-58
2021/12/06 07:43:09;;;;;;;68.77;32.10;;;;;;;1.71;99.85;101420.13;5033477;28;20113;-58
2021/12/06 07:45:35;;;;;;;62.03;32.67;;;;;;;1.73;99.61;101423.47;5033169;28;20478;-58
2021/12/06 07:48:00;;;;;;;61.63;32.60;;;;;;;1.76;99.96;101412.00;5031174;28;20041;-60
2021/12/06 07:50:26;;;;;;;53.63;32.20;;;;;;;1.78;100.00;101409.31;5033530;28;20077;-58
2021/12/06 07:52:53;;;;;;;65.87;32.73;;;;;;;1.79;99.96;101401.38;5032695;28;20030;-58
2021/12/06 07:55:22;;;;;;;63.07;33.20;;;;;;;1.79;99.82;101401.38;5032971;28;20120;-57
2021/12/06 07:57:48;;;;;;;61.30;34.90;;;;;;;1.81;99.83;101394.28;5032924;28;20022;-58
2021/12/06 08:00:20;;;;;;;54.57;34.20;;;;;;;1.83;100.00;101391.56;5029682;28;20250;-59
2021/12/06 08:02:46;;;;;;;59.40;35.13;;;;;;;1.86;99.63;101391.38;5030590;28;20572;-58
2021/12/06 08:05:30;;;;;;;72.57;38.40;;;;;;;1.88;99.96;101389.53;5032558;28;20651;-57
2021/12/06 08:08:11;;;;;;;77.97;39.93;;;;;;;1.88;99.99;101379.06;5031349;28;20029;-57
2021/12/06 08:10:44;;;;;;;81.20;40.77;;;;;;;1.91;99.89;101391.13;5031692;28;20363;-57
2021/12/06 08:13:11;;;;;;;84.47;41.80;;;;;;;1.89;99.60;101385.97;5032771;28;20481;-57
2021/12/06 08:15:36;;;;;;;92.97;41.33;;;;;;;1.90;99.84;101387.66;5031937;28;20060;-58
2021/12/06 08:18:03;;;;;;;87.30;42.43;;;;;;;1.89;99.87;101385.97;5031910;28;20073;-57
2021/12/06 08:20:28;;;;;;;79.53;41.20;;;;;;;1.92;100.00;101385.78;5031684;28;20037;-59
2021/12/06 08:22:54;;;;;;;79.70;40.40;;;;;;;1.90;99.93;101387.66;5031340;28;20382;-57
2021/12/06 08:25:19;;;;;;;79.23;41.33;;;;;;;1.91;100.00;101388.50;5030950;28;20359;-57
2021/12/06 08:27:46;;;;;;;79.93;40.50;;;;;;;1.92;100.00;101388.41;5032794;28;20053;-56
2021/12/06 08:30:13;;;;;;;83.93;41.87;;;;;;;1.87;99.95;101388.69;5033235;28;20033;-58
2021/12/06 08:32:38;;;;;;;79.20;41.80;;;;;;;1.86;100.00;101391.38;5025194;28;20033;-57
2021/12/06 08:35:06;;;;;;;79.87;43.27;;;;;;;1.84;100.00;101385.41;5019050;28;20048;-59
2021/12/06 08:37:31;;;;;;;83.67;43.63;;;;;;;1.88;100.00;101400.00;5019360;28;20037;-56
2021/12/06 08:39:57;;;;;;;83.30;43.57;;;;;;;1.90;100.00;101408.59;5027180;28;20037;-58
2021/12/06 08:42:22;;;;;;;86.20;43.93;;;;;;;1.94;100.00;101417.94;5024464;28;20048;-56
2021/12/06 08:44:47;;;;;;;78.37;40.53;;;;;;;1.94;100.00;101423.19;5029447;28;20072;-56
2021/12/06 08:47:15;;;;;;;77.90;40.47;;;;;;;1.98;99.61;101431.69;5027016;28;20087;-58
2021/12/06 08:49:41;;;;;;;77.27;40.33;;;;;;;2.01;99.51;101434.09;5029179;28;20075;-57
2021/12/06 08:52:07;;;;;;;89.00;41.20;;;;;;;1.94;99.83;101425.78;5025129;28;20038;-56
2021/12/06 08:54:32;;;;;;;86.27;42.97;;;;;;;1.90;100.00;101424.28;5026983;28;20045;-56
2021/12/06 08:57:01;;;;;;;84.07;42.53;;;;;;;1.92;100.00;101427.63;5024631;28;20560;-56
2021/12/06 08:59:27;;;;;;;89.10;43.20;;;;;;;1.93;100.00;101429.31;5026568;28;20036;-55
2021/12/06 09:01:56;;;;;;;80.83;41.50;;;;;;;1.93;100.00;101429.31;5031087;28;20410;-57
2021/12/06 09:04:22;;;;;;;83.43;40.13;;;;;;;1.93;100.00;101439.78;5031960;28;20084;-58
2021/12/06 09:06:50;;;;;;;84.43;40.27;;;;;;;1.92;100.00;101443.31;5033568;28;20029;-58
2021/12/06 09:09:16;;;;;;;85.63;42.70;;;;;;;1.95;100.00;101437.94;5032424;28;20040;-58
2021/12/06 09:11:43;;;;;;;79.53;40.03;;;;;;;1.93;100.00;101434.53;5032211;28;20029;-58
2021/12/06 09:14:09;;;;;;;80.20;40.17;;;;;;;1.97;100.00;101436.06;5029157;28;20079;-59
2021/12/06 09:16:37;;;;;;;76.50;38.57;;;;;;;1.99;100.00;101444.69;5030990;28;20096;-58
2021/12/06 09:19:05;;;;;;;75.80;38.07;;;;;;;2.01;100.00;101439.34;5032935;28;20045;-58
2021/12/06 09:21:31;;;;;;;72.40;36.80;;;;;;;2.02;100.00;101448.84;5033455;28;20087;-58
2021/12/06 09:24:00;;;;;;;74.33;36.97;;;;;;;2.01;99.89;101442.81;5030484;28;20034;-58
2021/12/06 09:26:26;;;;;;;75.60;37.63;;;;;;;2.02;100.00;101433.16;5030187;28;20064;-58
2021/12/06 09:28:51;;;;;;;72.43;36.03;;;;;;;2.04;99.14;101431.31;5029285;28;20031;-58
2021/12/06 09:31:19;;;;;;;69.53;35.80;;;;;;;2.03;99.88;101445.34;5032628;28;20025;-58
2021/12/06 09:33:45;;;;;;;69.67;34.30;;;;;;;2.03;99.91;101444.47;5030601;28;20033;-58
2021/12/06 09:36:12;;;;;;;70.70;35.97;;;;;;;2.03;99.78;101449.72;5030636;28;20042;-58
2021/12/06 09:38:39;;;;;;;69.03;36.67;;;;;;;2.01;99.97;101442.81;5030803;28;20531;-59
2021/12/06 09:41:11;;;;;;;73.27;36.60;;;;;;;2.03;100.00;101439.25;5031003;28;20121;-58
2021/12/06 09:43:39;;;;;;;74.93;36.73;;;;;;;2.00;100.00;101441.13;5030921;28;20052;-59
2021/12/06 09:46:11;;;;;;;75.90;37.37;;;;;;;1.99;100.00;101436.81;5029711;28;20110;-59
2021/12/06 09:48:38;;;;;;;84.17;38.40;;;;;;;1.94;100.00;101446.72;5028695;28;20082;-58
2021/12/06 09:51:09;;;;;;;89.77;38.53;;;;;;;1.98;100.00;101437.72;5028513;28;20048;-58
2021/12/06 09:53:37;;;;;;;90.93;39.40;;;;;;;1.96;100.00;101444.84;5025957;28;20037;-59
2021/12/06 09:56:07;;;;;;;99.77;40.57;;;;;;;1.96;100.00;101450.06;5028802;28;20034;-58
2021/12/06 09:58:33;;;;;;;106.03;40.03;;;;;;;2.00;100.00;101456.81;5029371;28;20593;-58
2021/12/06 10:01:06;;;;;;;127.73;42.27;;;;;;;1.99;100.00;101444.69;5030663;28;20109;-58
2021/12/06 10:03:33;;;;;;;;;;;;;;;2.14;100.00;101447.31;5030260;28;20486;-58
2021/12/06 10:06:02;;;;;;;150.33;45.43;;;;;;;2.13;100.00;101450.88;5031285;28;20188;-58
2021/12/06 10:08:37;;;;;;;138.60;44.37;;;;;;;2.12;100.00;101434.31;5028818;28;20041;-59
2021/12/06 10:11:05;;;;;;;158.03;45.23;;;;;;;2.17;100.00;101431.41;5031250;28;20109;-57
2021/12/06 10:13:30;;;;;;;146.50;46.33;;;;;;;2.20;100.00;101431.25;5029783;28;20037;-57
2021/12/06 10:15:56;;;;;;;141.53;44.00;;;;;;;2.22;100.00;101423.31;5030392;28;20040;-59
2021/12/06 10:18:21;;;;;;;145.33;44.67;;;;;;;2.23;100.00;101415.34;5029274;28;20486;-58
2021/12/06 10:20:48;;;;;;;127.97;42.23;;;;;;;2.14;100.00;101400.22;5030001;28;20044;-59
2021/12/06 10:23:17;;;;;;;124.63;41.20;;;;;;;2.12;100.00;101408.13;5029097;28;20382;-59
2021/12/06 10:25:45;;;;;;;116.90;40.10;;;;;;;2.08;100.00;101405.81;5029974;28;20040;-59
2021/12/06 10:28:11;;;;;;;117.37;40.50;;;;;;;2.04;100.00;101405.16;5028843;28;20079;-58
2021/12/06 10:30:43;;;;;;;118.57;39.73;;;;;;;1.99;99.97;101397.59;5028789;28;20036;-58
2021/12/06 10:33:15;;;;;;;103.93;37.07;;;;;;;2.03;99.88;101402.63;5028179;28;20429;-58
2021/12/06 10:35:44;;;;;;;96.03;36.37;;;;;;;1.98;99.80;101411.56;5030429;28;20638;-58
2021/12/06 10:38:11;;;;;;;107.57;37.37;;;;;;;2.00;100.00;101409.72;5029624;28;20123;-59
2021/12/06 10:40:40;;;;;;;100.00;36.90;;;;;;;2.03;100.00;101405.25;5029504;28;20530;-58
2021/12/06 10:43:11;;;;;;;96.67;36.13;;;;;;;2.06;100.00;101398.03;5031002;28;20545;-58
2021/12/06 10:45:42;;;;;;;88.00;34.80;;;;;;;2.00;99.51;101396.66;5027814;28;20486;-58
2021/12/06 10:48:10;;;;;;;76.83;33.77;;;;;;;2.03;99.15;101392.16;5026038;28;20112;-58
2021/12/06 10:50:51;;;;;;;80.20;35.80;;;;;;;2.04;99.34;101383.38;5029531;28;20074;-57
2021/12/06 10:53:28;;;;;;;76.93;34.97;;;;;;;2.01;99.41;101369.56;5029122;28;20052;-59
2021/12/06 10:55:56;;;;;;;77.77;34.63;;;;;;;1.95;99.24;101354.22;5024082;28;20083;-58
2021/12/06 10:58:27;;;;;;;73.43;33.80;;;;;;;2.01;98.97;101348.63;5020807;28;20068;-58
2021/12/06 11:00:56;;;;;;;68.37;32.87;;;;;;;2.01;99.10;101340.78;5022112;28;20056;-58
2021/12/06 11:03:32;;;;;;;56.47;27.90;;;;;;;1.97;98.45;101336.66;5025502;28;20063;-57
2021/12/06 11:06:03;;;;;;;55.63;27.53;;;;;;;2.00;98.16;101344.31;5023255;28;20548;-58
2021/12/06 11:08:32;;;;;;;55.83;28.47;;;;;;;1.97;97.91;101333.22;5027530;28;20029;-57
2021/12/06 11:11:02;;;;;;;57.13;29.10;;;;;;;2.00;97.72;101346.09;5026528;28;20022;-58
2021/12/06 11:13:41;;;;;;;62.57;29.80;;;;;;;2.05;97.62;101344.03;5026342;28;20035;-58
2021/12/06 11:16:22;;;;;;;58.67;29.47;;;;;;;1.99;97.64;101345.28;5029048;28;20048;-58
2021/12/06 11:18:51;;;;;;;54.97;26.13;;;;;;;1.96;97.54;101328.88;5028374;28;20047;-59
2021/12/06 11:21:45;;;;;;;52.33;26.33;;;;;;;2.06;97.63;101318.72;5028615;28;20087;-58
2021/12/06 11:24:25;;;;;;;54.83;25.67;;;;;;;1.91;96.87;101316.09;5025952;28;20063;-58
2021/12/06 11:27:00;;;;;;;50.23;24.80;;;;;;;1.85;96.52;101300.78;5025680;28;20036;-58
2021/12/06 11:29:32;;;;;;;52.07;24.87;;;;;;;1.76;96.62;101306.59;5024187;28;20033;-59